Time;durP1;ratioP1;P1;durP2;ratioP2;P2;SDS_P1;SDS_P2;PMS_P1;PMS_P2;Temp;Humidity;BMP_temperature;BMP_pressure;BME280_temperature;BME280_humidity;BME280_pressure;Samples;Min_cycle;Max_cycle;Signal;HPM_P1;HPM_P2
2021/05/29 00:01:17;;;;;;;8.15;6.90;;;;;;;13.40;100.00;98922.98;1803919;79;20952;-69
2021/05/29 00:03:43;;;;;;;7.33;6.70;;;;;;;13.40;100.00;98930.24;1805143;79;21097;-67
2021/05/29 00:06:11;;;;;;;7.70;6.17;;;;;;;13.38;100.00;98925.16;1804483;79;20998;-67
2021/05/29 00:08:38;;;;;;;6.80;6.20;;;;;;;13.37;100.00;98931.63;1799482;79;20951;-68
2021/05/29 00:11:06;;;;;;;;;;;;;;;13.36;100.00;98923.29;1806478;79;20883;-67
2021/05/29 00:13:33;;;;;;;6.55;5.95;;;;;;;13.35;100.00;98920.34;1800032;79;20268;-67
2021/05/29 00:16:01;;;;;;;6.78;5.42;;;;;;;13.33;100.00;98919.83;1804335;79;21078;-66
2021/05/29 00:18:29;;;;;;;6.37;5.85;;;;;;;13.34;100.00;98922.77;1805737;79;21612;-67
2021/05/29 00:20:58;;;;;;;6.75;5.78;;;;;;;13.34;100.00;98920.63;1805741;79;21035;-67
2021/05/29 00:23:25;;;;;;;6.92;6.20;;;;;;;13.33;100.00;98915.78;1805026;79;20999;-67
2021/05/29 00:25:52;;;;;;;7.28;6.67;;;;;;;13.31;100.00;98916.61;1801589;79;21010;-66
2021/05/29 00:28:20;;;;;;;;;;;;;;;13.28;100.00;98913.95;1806785;78;21010;-69
2021/05/29 00:30:47;;;;;;;8.30;6.60;;;;;;;13.28;100.00;98917.19;1804019;79;20149;-68
2021/05/29 00:33:14;;;;;;;7.40;6.72;;;;;;;13.26;100.00;98923.38;1803993;79;20982;-66
2021/05/29 00:35:42;;;;;;;7.92;5.78;;;;;;;13.26;100.00;98915.30;1799337;79;20987;-66
2021/05/29 00:38:08;;;;;;;6.85;5.70;;;;;;;13.24;100.00;98911.53;1794131;79;21113;-66
2021/05/29 00:40:36;;;;;;;7.28;5.85;;;;;;;13.25;100.00;98913.67;1796155;79;21100;-66
2021/05/29 00:43:04;;;;;;;6.25;5.70;;;;;;;13.26;100.00;98907.21;1796106;79;21576;-68
2021/05/29 00:45:32;;;;;;;6.75;6.15;;;;;;;13.24;100.00;98895.36;1796167;79;20916;-68
2021/05/29 00:48:02;;;;;;;8.43;7.62;;;;;;;13.24;100.00;98899.95;1793930;79;20947;-68
2021/05/29 00:50:31;;;;;;;;;;;;;;;13.26;100.00;98896.43;1758843;80;21070;-66
2021/05/29 00:52:59;;;;;;;12.18;7.97;;;;;;;13.28;100.00;98892.94;1782553;78;21088;-67
2021/05/29 00:55:26;;;;;;;9.13;7.58;;;;;;;13.27;100.00;98897.50;1791824;78;20862;-68
2021/05/29 00:57:55;;;;;;;;;;;;;;;13.27;100.00;98895.36;1795537;78;20898;-68
2021/05/29 01:00:23;;;;;;;9.13;7.35;;;;;;;13.28;100.00;98897.78;1808445;78;20720;-67
2021/05/29 01:02:51;;;;;;;7.55;6.85;;;;;;;13.28;100.00;98884.86;1789043;78;21534;-68
2021/05/29 01:05:20;;;;;;;10.48;6.58;;;;;;;13.28;100.00;98882.95;1788922;80;21734;-67
2021/05/29 01:07:51;;;;;;;8.03;7.22;;;;;;;13.28;100.00;98878.12;1810704;78;21005;-67
2021/05/29 01:10:20;;;;;;;9.55;7.42;;;;;;;13.28;100.00;98877.56;1799900;77;21073;-67
2021/05/29 01:12:46;;;;;;;13.45;8.03;;;;;;;13.28;100.00;98875.42;1797691;78;21010;-68
2021/05/29 01:15:18;;;;;;;9.08;8.23;;;;;;;13.29;100.00;98878.36;1804036;78;20934;-67
2021/05/29 01:17:45;;;;;;;7.78;6.92;;;;;;;13.28;100.00;98881.61;1803725;78;21058;-67
2021/05/29 01:20:15;;;;;;;8.18;7.47;;;;;;;13.29;100.00;98885.09;1803610;79;20923;-67
2021/05/29 01:22:50;;;;;;;8.90;7.28;;;;;;;13.28;100.00;98875.42;1802979;78;20948;-67
2021/05/29 01:25:28;;;;;;;8.85;8.05;;;;;;;13.30;100.00;98889.39;1805298;79;20999;-63
2021/05/29 01:28:06;;;;;;;11.08;8.10;;;;;;;13.31;100.00;98891.01;1805350;79;21034;-67
2021/05/29 01:30:47;;;;;;;8.85;7.15;;;;;;;13.31;100.00;98883.48;1785040;79;22411;-67
2021/05/29 01:33:19;;;;;;;9.10;7.92;;;;;;;13.32;100.00;98889.91;1781202;79;20986;-66
2021/05/29 01:35:46;;;;;;;8.88;7.05;;;;;;;13.33;100.00;98884.79;1804408;79;21529;-67
2021/05/29 01:38:15;;;;;;;8.05;7.30;;;;;;;13.33;100.00;98881.27;1805718;79;21438;-67
2021/05/29 01:40:43;;;;;;;7.03;6.30;;;;;;;13.33;100.00;98871.84;1805415;79;21591;-66
2021/05/29 01:43:11;;;;;;;6.58;5.95;;;;;;;13.32;100.00;98869.69;1796653;79;21092;-67
2021/05/29 01:45:41;;;;;;;7.15;6.45;;;;;;;13.32;100.00;98873.73;1793911;79;20931;-68
2021/05/29 01:48:08;;;;;;;7.70;7.00;;;;;;;13.29;100.00;98874.31;1793697;80;20962;-67
2021/05/29 01:50:49;;;;;;;7.28;6.65;;;;;;;13.30;100.00;98875.91;1793924;80;20967;-69
2021/05/29 01:53:19;;;;;;;9.30;7.65;;;;;;;13.29;100.00;98867.58;1801071;79;21010;-66
2021/05/29 01:55:48;;;;;;;10.65;7.78;;;;;;;13.29;100.00;98871.07;1803949;79;20851;-67
2021/05/29 01:58:17;;;;;;;8.55;6.65;;;;;;;13.27;100.00;98875.14;1799876;79;21038;-71
2021/05/29 02:00:44;;;;;;;9.95;8.43;;;;;;;13.19;100.00;98867.67;1799466;79;20971;-67
2021/05/29 02:03:11;;;;;;;9.50;7.30;;;;;;;13.14;100.00;98877.17;1805714;79;20979;-66
2021/05/29 02:05:40;;;;;;;8.65;7.85;;;;;;;13.06;100.00;98876.70;1806036;79;20963;-67
2021/05/29 02:08:10;;;;;;;7.75;6.95;;;;;;;13.03;100.00;98877.29;1805498;79;21062;-66
2021/05/29 02:10:42;;;;;;;9.18;8.28;;;;;;;13.01;100.00;98875.42;1800580;79;21121;-66
2021/05/29 02:13:24;;;;;;;10.55;9.40;;;;;;;12.98;100.00;98881.91;1802064;79;21006;-67
2021/05/29 02:15:52;;;;;;;8.93;8.13;;;;;;;12.97;100.00;98879.77;1801984;79;21634;-68
2021/05/29 02:18:19;;;;;;;10.25;9.23;;;;;;;12.96;100.00;98880.86;1801967;79;21002;-66
2021/05/29 02:21:06;;;;;;;11.20;9.97;;;;;;;12.92;100.00;98872.29;1802501;79;21712;-66
2021/05/29 02:23:39;;;;;;;10.72;7.87;;;;;;;12.87;100.00;98880.67;1805364;79;21561;-67
2021/05/29 02:26:09;;;;;;;12.58;7.85;;;;;;;12.83;100.00;98875.59;1794005;79;21437;-67
2021/05/29 02:28:37;;;;;;;13.25;8.58;;;;;;;12.81;100.00;98872.92;1820182;78;20998;-67
2021/05/29 02:31:06;;;;;;;12.23;8.23;;;;;;;12.76;100.00;98866.24;1794142;79;20923;-66
2021/05/29 02:33:33;;;;;;;12.70;7.45;;;;;;;12.68;100.00;98878.98;1794170;79;21449;-70
2021/05/29 02:35:59;;;;;;;21.90;7.03;;;;;;;12.59;100.00;98872.87;1793914;80;21010;-67
2021/05/29 02:47:37;;;;;;;10.90;9.85;;;;;;;12.37;100.00;98892.70;1875389;75;23386;-62
2021/05/29 02:50:06;;;;;;;14.00;9.63;;;;;;;12.51;100.00;98886.13;1845372;75;21592;-64
2021/05/29 02:52:36;;;;;;;11.43;8.75;;;;;;;12.51;100.00;98895.01;1808660;77;21663;-65
2021/05/29 02:55:06;;;;;;;13.75;8.83;;;;;;;12.48;100.00;98891.54;1818212;77;20973;-64
2021/05/29 02:57:32;;;;;;;9.75;8.55;;;;;;;12.45;100.00;98890.77;1839354;77;21109;-63
2021/05/29 02:59:59;;;;;;;13.83;9.03;;;;;;;12.39;100.00;98908.02;1808983;77;21069;-65
2021/05/29 03:02:25;;;;;;;13.10;10.18;;;;;;;12.33;100.00;98908.61;1825499;75;20998;-65
2021/05/29 03:04:52;;;;;;;11.63;7.33;;;;;;;12.34;100.00;98905.38;1830261;77;21099;-64
2021/05/29 03:07:19;;;;;;;10.30;8.23;;;;;;;12.27;100.00;98906.23;1826954;75;21571;-64
2021/05/29 03:09:46;;;;;;;8.80;7.90;;;;;;;12.24;100.00;98908.94;1824578;77;21626;-65
2021/05/29 03:12:13;;;;;;;14.95;9.43;;;;;;;12.23;100.00;98909.49;1823082;77;20979;-64
2021/05/29 03:14:41;;;;;;;;;;;;;;;12.23;100.00;98908.14;1826314;77;20982;-65
2021/05/29 03:17:08;;;;;;;13.15;9.45;;;;;;;12.20;100.00;98912.75;1820626;77;21761;-66
2021/05/29 03:19:35;;;;;;;13.58;9.45;;;;;;;12.17;100.00;98903.87;1817681;77;20918;-65
2021/05/29 03:22:04;;;;;;;9.35;8.43;;;;;;;12.18;100.00;98912.77;1827469;77;27074;-64
2021/05/29 03:24:30;;;;;;;9.40;8.40;;;;;;;12.18;100.00;98914.12;1809596;77;20965;-64
2021/05/29 03:26:57;;;;;;;11.20;9.95;;;;;;;12.18;100.00;98916.26;1823029;77;21037;-63
2021/05/29 03:29:23;;;;;;;11.65;9.13;;;;;;;12.18;100.00;98915.45;1825072;77;21014;-65
2021/05/29 03:31:50;;;;;;;10.43;8.93;;;;;;;12.17;100.00;98919.22;1823998;77;21598;-64
2021/05/29 03:34:17;;;;;;;12.55;10.25;;;;;;;12.19;100.00;98917.85;1834546;77;20946;-64
2021/05/29 03:36:44;;;;;;;9.70;8.63;;;;;;;12.20;100.00;98915.98;1836610;77;20894;-64
2021/05/29 03:39:12;;;;;;;15.08;8.73;;;;;;;12.19;100.00;98922.44;1824796;77;21033;-63
2021/05/29 03:41:39;;;;;;;10.18;8.40;;;;;;;12.21;100.00;98925.66;1738724;80;21052;-64
2021/05/29 03:44:06;;;;;;;9.53;7.65;;;;;;;12.23;100.00;98924.84;1752267;80;20903;-67
2021/05/29 05:46:16;;;;;;;11.50;8.43;;;;;;;13.04;100.00;98951.62;1784788;78;21067;-69
2021/05/29 05:48:43;;;;;;;12.37;7.78;;;;;;;13.26;100.00;98946.29;1811650;78;20999;-67
2021/05/29 05:51:10;;;;;;;6.55;5.95;;;;;;;13.44;100.00;98954.20;1804096;78;21050;-68
2021/05/29 05:53:40;;;;;;;7.60;6.90;;;;;;;13.42;100.00;98952.33;1810801;78;20986;-72
2021/05/29 05:56:08;;;;;;;7.08;6.33;;;;;;;13.43;100.00;98956.09;1803199;78;21735;-68
2021/05/29 05:58:38;;;;;;;7.10;6.33;;;;;;;13.38;100.00;98960.20;1799293;78;21042;-68
2021/05/29 06:01:06;;;;;;;8.88;7.00;;;;;;;13.49;100.00;98965.72;1804836;78;25336;-65
2021/05/29 06:03:34;;;;;;;10.20;6.37;;;;;;;13.64;100.00;98966.64;1778627;78;21085;-66
2021/05/29 06:06:01;;;;;;;7.00;6.40;;;;;;;13.63;100.00;98970.44;1807895;77;20966;-65
2021/05/29 06:08:28;;;;;;;7.80;5.85;;;;;;;13.58;100.00;98973.19;1821985;77;21522;-68
2021/05/29 06:10:55;;;;;;;7.50;6.12;;;;;;;13.56;100.00;98980.21;1810647;77;21521;-68
2021/05/29 06:17:59;;;;;;;6.75;6.15;;;;;;;13.58;100.00;98987.47;1811360;77;21038;-65
2021/05/29 06:21:19;;;;;;;10.90;6.70;;;;;;;13.51;100.00;98986.45;1814052;77;20919;-66
2021/05/29 06:23:46;;;;;;;8.45;7.65;;;;;;;13.61;100.00;98990.14;1810094;78;21041;-67
2021/05/29 06:26:14;;;;;;;7.70;6.78;;;;;;;13.72;100.00;98993.78;1804228;77;20991;-65
2021/05/29 06:28:40;;;;;;;10.63;6.67;;;;;;;13.80;100.00;98988.84;1807646;77;21103;-68
2021/05/29 06:31:07;;;;;;;8.48;7.05;;;;;;;13.87;100.00;98988.75;1803923;77;20990;-67
2021/05/29 06:33:34;;;;;;;14.78;7.78;;;;;;;13.97;100.00;98992.41;1803370;77;20868;-66
2021/05/29 06:36:01;;;;;;;11.00;7.28;;;;;;;14.08;100.00;98991.17;1816219;77;21050;-64
2021/05/29 06:38:27;;;;;;;12.47;9.45;;;;;;;14.28;100.00;98992.78;1811644;77;21235;-70
2021/05/29 06:40:54;;;;;;;10.90;8.23;;;;;;;14.43;100.00;98999.33;1805624;77;21070;-67
2021/05/29 06:43:21;;;;;;;5.92;5.42;;;;;;;14.51;100.00;99000.02;1806530;77;20983;-68
2021/05/29 06:45:48;;;;;;;10.30;6.10;;;;;;;14.47;100.00;99004.94;1798651;77;21046;-68
2021/05/29 06:48:16;;;;;;;6.53;5.90;;;;;;;14.48;100.00;99010.05;1798757;77;21010;-67
2021/05/29 06:50:55;;;;;;;9.80;6.67;;;;;;;14.57;100.00;99012.91;1802151;77;21098;-68
2021/05/29 06:53:31;;;;;;;6.28;5.72;;;;;;;14.70;100.00;99011.36;1801119;77;21110;-65
2021/05/29 06:58:50;;;;;;;10.55;5.83;;;;;;;14.81;100.00;99014.72;1803681;77;21603;-67
2021/05/29 07:01:19;;;;;;;8.40;5.45;;;;;;;14.83;100.00;99016.59;1807728;77;20911;-66
2021/05/29 07:03:47;;;;;;;;;;;;;;;14.91;100.00;99015.34;1807066;77;21599;-68
2021/05/29 07:06:16;;;;;;;5.07;4.67;;;;;;;15.00;100.00;99020.34;1817097;77;21076;-66
2021/05/29 07:08:44;;;;;;;8.55;5.35;;;;;;;15.11;100.00;99021.52;1826827;77;21015;-68
2021/05/29 07:11:11;;;;;;;6.58;5.65;;;;;;;15.29;100.00;99019.31;1802420;77;21045;-68
2021/05/29 07:13:38;;;;;;;7.25;6.55;;;;;;;15.42;100.00;99021.23;1804597;78;20971;-69
2021/05/29 07:16:06;;;;;;;8.33;6.00;;;;;;;15.78;100.00;99030.62;1818209;77;20967;-70
2021/05/29 07:18:44;;;;;;;10.03;5.05;;;;;;;15.80;100.00;99029.22;1760188;80;21080;-67
2021/05/29 07:21:02;;;;;;;5.17;4.40;;;;;;;15.80;100.00;99028.39;1803565;77;21002;-68
2021/05/29 07:23:29;;;;;;;7.42;4.92;;;;;;;15.68;100.00;99033.47;1801778;77;21442;-67
2021/05/29 07:25:56;;;;;;;5.75;5.25;;;;;;;15.70;100.00;99029.94;1815556;77;20947;-69
2021/05/29 07:28:23;;;;;;;5.17;4.67;;;;;;;15.92;100.00;99023.27;1802546;77;20888;-67
2021/05/29 07:30:50;;;;;;;5.65;4.20;;;;;;;16.14;100.00;99025.81;1808348;77;21576;-67
2021/05/29 07:33:17;;;;;;;7.40;5.47;;;;;;;16.39;100.00;99021.22;1819060;77;21660;-68
2021/05/29 07:35:47;;;;;;;8.40;4.70;;;;;;;16.38;100.00;99035.84;1809429;77;20982;-69
2021/05/29 07:38:16;;;;;;;6.05;5.08;;;;;;;16.11;100.00;99033.19;1807521;77;21572;-70
2021/05/29 07:40:43;;;;;;;4.22;3.83;;;;;;;16.05;100.00;99029.24;1828497;77;21082;-66
2021/05/29 07:43:09;;;;;;;5.08;4.53;;;;;;;16.43;100.00;99037.64;1808481;77;21730;-65
2021/05/29 07:45:36;;;;;;;5.40;4.45;;;;;;;16.38;100.00;99033.69;1814142;77;21886;-67
2021/05/29 07:48:04;;;;;;;4.70;3.90;;;;;;;16.42;100.00;99030.64;1758518;80;21091;-65
2021/05/29 07:50:31;;;;;;;7.35;4.30;;;;;;;16.43;100.00;99030.31;1810621;77;20954;-69
2021/05/29 07:53:01;;;;;;;8.40;5.17;;;;;;;16.43;100.00;99030.31;1814424;77;21585;-66
2021/05/29 07:55:28;;;;;;;11.08;4.22;;;;;;;16.64;100.00;99026.59;1823974;78;21091;-65
2021/05/29 07:57:55;;;;;;;7.83;4.72;;;;;;;16.84;100.00;99023.98;1806930;78;21544;-67
2021/05/29 08:00:26;;;;;;;5.87;4.50;;;;;;;16.93;100.00;99032.19;1823547;77;21054;-66
2021/05/29 08:02:52;;;;;;;7.17;4.42;;;;;;;16.85;100.00;99030.20;1793124;78;21120;-66
2021/05/29 08:05:20;;;;;;;5.45;4.28;;;;;;;16.93;100.00;99035.70;1807691;78;21580;-68
2021/05/29 08:07:49;;;;;;;4.83;3.55;;;;;;;17.04;100.00;99036.23;1802555;77;21202;-66
2021/05/29 08:10:16;;;;;;;7.17;3.45;;;;;;;17.53;100.00;99034.44;1803820;77;20974;-65
2021/05/29 08:12:43;;;;;;;3.22;2.92;;;;;;;18.00;100.00;99038.06;1816150;77;21545;-67
2021/05/29 08:15:15;;;;;;;5.22;3.02;;;;;;;18.02;100.00;99038.56;1760922;80;21019;-65
2021/05/29 08:17:43;;;;;;;7.17;3.60;;;;;;;17.93;100.00;99040.44;1756550;80;21054;-69
2021/05/29 08:20:13;;;;;;;5.22;3.62;;;;;;;17.72;100.00;99034.77;1756344;80;21080;-70
2021/05/29 08:22:42;;;;;;;6.55;4.45;;;;;;;17.64;100.00;99037.69;1816743;77;21595;-69
2021/05/29 08:25:10;;;;;;;4.55;3.37;;;;;;;17.65;100.00;99035.77;1829681;77;21050;-69
2021/05/29 08:27:37;;;;;;;6.70;2.98;;;;;;;17.70;100.00;99028.84;1753824;80;21050;-71
2021/05/29 08:30:07;;;;;;;3.62;2.90;;;;;;;17.64;100.00;99032.27;1821010;77;21094;-67
2021/05/29 08:32:34;;;;;;;3.80;2.90;;;;;;;17.81;100.00;99030.74;1804067;77;21083;-69
2021/05/29 08:35:01;;;;;;;4.03;3.60;;;;;;;18.08;100.00;99033.23;1797908;78;21033;-70
2021/05/29 08:37:28;;;;;;;;;;;;;;;18.22;100.00;99027.66;1808050;77;21551;-69
2021/05/29 08:40:01;;;;;;;3.35;3.05;;;;;;;18.43;100.00;99016.98;1831889;77;20226;-71
2021/05/29 08:42:31;;;;;;;8.53;3.37;;;;;;;18.66;100.00;99026.34;1806406;77;21037;-70
2021/05/29 08:44:58;;;;;;;5.65;4.03;;;;;;;18.99;100.00;99023.39;1706007;80;21702;-70
2021/05/29 08:47:32;;;;;;;3.50;2.80;;;;;;;19.34;100.00;99021.95;1742113;81;20947;-71
2021/05/29 08:49:59;;;;;;;3.12;2.90;;;;;;;19.36;100.00;99021.62;1762643;80;21094;-69
2021/05/29 08:52:36;;;;;;;3.60;2.40;;;;;;;19.58;100.00;99011.06;1809887;77;21006;-72
2021/05/29 08:55:00;;;;;;;5.80;2.60;;;;;;;19.56;100.00;99012.74;1793095;78;20956;-73
2021/05/29 08:57:40;;;;;;;2.12;2.02;;;;;;;19.32;100.00;99016.59;1823548;77;21092;-71
2021/05/29 09:00:13;;;;;;;5.12;2.25;;;;;;;19.08;100.00;99023.92;1814489;77;21847;-72
2021/05/29 09:03:11;;;;;;;3.40;2.40;;;;;;;18.88;100.00;99030.84;1804173;78;21089;-70
2021/05/29 09:05:54;;;;;;;2.92;2.40;;;;;;;18.81;100.00;99028.59;1838673;77;21632;-68
2021/05/29 09:08:26;;;;;;;8.70;2.50;;;;;;;18.40;100.00;99021.70;1796467;78;20990;-67
2021/05/29 09:10:58;;;;;;;8.33;2.90;;;;;;;18.07;100.00;99024.03;1799096;78;21727;-66
2021/05/29 09:13:31;;;;;;;8.18;3.00;;;;;;;17.89;100.00;99024.00;1793856;77;21809;-69
2021/05/29 09:16:05;;;;;;;7.15;2.85;;;;;;;17.90;100.00;99031.02;1799441;78;21076;-67
2021/05/29 09:18:40;;;;;;;4.17;2.90;;;;;;;17.84;100.00;99028.78;1794311;78;21090;-67
2021/05/29 09:21:34;;;;;;;3.40;2.77;;;;;;;17.83;100.00;99027.16;1783518;77;21209;-65
2021/05/29 09:24:14;;;;;;;2.77;2.58;;;;;;;17.88;100.00;99033.80;1773817;79;21173;-66
2021/05/29 09:26:54;;;;;;;9.90;2.90;;;;;;;18.00;100.00;99027.20;1767206;79;21563;-66
2021/05/29 09:29:29;;;;;;;4.70;2.55;;;;;;;18.21;100.00;99026.86;1775493;79;21073;-66
2021/05/29 09:32:04;;;;;;;6.45;2.85;;;;;;;18.00;100.00;99031.28;1790051;79;21022;-67
2021/05/29 09:34:43;;;;;;;4.70;2.92;;;;;;;18.00;100.00;99031.28;1744160;80;21043;-67
2021/05/29 09:37:13;;;;;;;3.37;2.98;;;;;;;17.73;100.00;99026.29;1791028;78;21647;-64
2021/05/29 09:39:45;;;;;;;3.60;2.15;;;;;;;17.74;100.00;99026.55;1779747;78;21172;-66
2021/05/29 09:42:13;;;;;;;2.83;2.05;;;;;;;17.83;100.00;99029.31;1773047;79;21072;-67
2021/05/29 09:44:40;;;;;;;7.47;2.92;;;;;;;17.76;100.00;99028.40;1782610;79;21018;-67
2021/05/29 09:47:14;;;;;;;4.00;3.27;;;;;;;17.64;100.00;99039.05;1781904;79;21122;-66
2021/05/29 09:49:56;;;;;;;7.50;3.42;;;;;;;17.24;100.00;99032.21;1782736;79;21208;-66
2021/05/29 09:52:27;;;;;;;4.92;3.20;;;;;;;16.98;100.00;99038.02;1777393;79;21042;-65
2021/05/29 09:55:06;;;;;;;8.65;3.30;;;;;;;16.91;100.00;99039.83;1789161;79;20973;-67
2021/05/29 09:57:57;;;;;;;4.00;3.50;;;;;;;17.01;100.00;99032.00;1758374;79;21615;-65
2021/05/29 10:00:42;;;;;;;5.80;4.03;;;;;;;17.19;100.00;99036.97;1752749;79;21070;-67
2021/05/29 10:03:10;;;;;;;6.78;2.85;;;;;;;17.37;100.00;99035.97;1767476;79;21209;-67
2021/05/29 10:05:42;;;;;;;5.35;3.52;;;;;;;17.43;100.00;99035.27;1767360;80;21140;-65
2021/05/29 10:08:13;;;;;;;3.60;3.25;;;;;;;17.51;100.00;99040.72;1773487;79;21027;-65
2021/05/29 10:10:41;;;;;;;6.03;3.22;;;;;;;17.57;100.00;99053.63;1782954;79;21047;-66
2021/05/29 10:13:09;;;;;;;5.80;2.80;;;;;;;17.72;100.00;99049.70;1773952;79;21051;-63
2021/05/29 10:15:37;;;;;;;3.80;3.40;;;;;;;18.00;100.00;99049.72;1770863;79;20978;-66
2021/05/29 10:18:06;;;;;;;9.55;2.90;;;;;;;18.24;100.00;99036.29;1769849;79;20974;-64
2021/05/29 10:20:34;;;;;;;5.75;3.10;;;;;;;18.08;100.00;99045.45;1781544;79;21631;-65
2021/05/29 10:23:01;;;;;;;3.50;3.20;;;;;;;17.88;100.00;99046.02;1782540;79;21568;-65
2021/05/29 10:25:27;;;;;;;4.47;2.98;;;;;;;17.85;100.00;99043.38;1775446;79;21049;-67
2021/05/29 10:27:56;;;;;;;5.08;3.10;;;;;;;17.75;100.00;99044.42;1779534;79;21956;-67
2021/05/29 10:30:24;;;;;;;4.12;2.95;;;;;;;17.64;100.00;99048.55;1785600;79;21070;-65
2021/05/29 10:33:17;;;;;;;4.05;2.90;;;;;;;17.60;100.00;99036.70;1777432;79;21025;-66
2021/05/29 10:35:46;;;;;;;3.20;2.77;;;;;;;17.60;100.00;99046.20;1769391;79;20974;-66
2021/05/29 10:38:13;;;;;;;2.33;2.20;;;;;;;17.66;100.00;99044.94;1770808;79;21046;-67
2021/05/29 10:40:47;;;;;;;7.00;3.07;;;;;;;17.87;100.00;99034.36;1779782;80;21692;-67
2021/05/29 10:43:18;;;;;;;4.30;2.95;;;;;;;17.87;100.00;99043.07;1770451;79;21150;-68
2021/05/29 10:45:57;;;;;;;3.83;2.90;;;;;;;17.95;100.00;99042.29;1772462;79;21153;-67
2021/05/29 10:48:27;;;;;;;3.15;2.70;;;;;;;18.02;100.00;99048.06;1770050;79;20954;-67
2021/05/29 10:53:55;;;;;;;7.30;3.58;;;;;;;18.14;100.00;99046.89;1761564;80;21861;-67
2021/05/29 10:56:26;;;;;;;6.53;4.47;;;;;;;18.08;100.00;99045.99;1785650;79;21034;-66
2021/05/29 10:59:17;;;;;;;4.10;3.60;;;;;;;17.85;100.00;99042.02;1713766;82;20964;-66
2021/05/29 11:01:49;;;;;;;4.00;3.15;;;;;;;17.42;100.00;99050.75;1771310;79;21076;-67
2021/05/29 11:04:23;;;;;;;5.87;3.72;;;;;;;17.11;100.00;99052.08;1771367;79;21093;-66
2021/05/29 11:06:57;;;;;;;6.95;3.62;;;;;;;16.78;100.00;99049.63;1774474;78;21979;-64
2021/05/29 11:09:34;;;;;;;4.30;3.70;;;;;;;16.60;100.00;99050.54;1784635;79;20992;-66
2021/05/29 11:12:02;;;;;;;7.75;3.80;;;;;;;16.36;100.00;99045.38;1771862;79;21645;-66
2021/05/29 11:14:30;;;;;;;3.98;3.50;;;;;;;16.09;100.00;99036.19;1765633;80;21027;-66
2021/05/29 11:17:09;;;;;;;4.72;3.67;;;;;;;15.85;100.00;99046.70;1753914;79;21749;-67
2021/05/29 11:19:40;;;;;;;10.10;3.83;;;;;;;15.70;100.00;99046.18;1770938;79;21124;-66
2021/05/29 11:22:17;;;;;;;7.15;4.25;;;;;;;15.57;100.00;99047.19;1762720;79;21100;-66
2021/05/29 11:24:57;;;;;;;4.67;4.17;;;;;;;15.47;100.00;99051.44;1766786;79;21121;-65
2021/05/29 11:27:38;;;;;;;5.70;4.35;;;;;;;15.40;100.00;99046.41;1758609;80;21656;-65
2021/05/29 11:30:10;;;;;;;7.67;3.98;;;;;;;15.35;100.00;99043.80;1760766;80;21089;-66
2021/05/29 11:35:45;;;;;;;6.67;4.97;;;;;;;15.35;100.00;99040.30;1747022;80;21184;-66
2021/05/29 11:38:26;;;;;;;6.92;4.75;;;;;;;15.33;100.00;99044.64;1746159;79;21054;-66
2021/05/29 11:41:08;;;;;;;4.85;4.35;;;;;;;15.30;100.00;99046.59;1745701;80;21057;-67
2021/05/29 11:43:50;;;;;;;6.33;4.33;;;;;;;15.28;100.00;99047.99;1746468;80;21034;-67
2021/05/29 11:46:21;;;;;;;5.28;4.10;;;;;;;15.25;100.00;99041.28;1761467;80;21168;-65
2021/05/29 11:49:03;;;;;;;4.80;3.65;;;;;;;15.21;100.00;99035.67;1752848;80;21571;-66
2021/05/29 11:51:38;;;;;;;5.40;3.62;;;;;;;15.21;100.00;99051.89;1738481;80;21126;-68
2021/05/29 11:54:17;;;;;;;8.05;4.30;;;;;;;15.20;100.00;99057.03;1747952;80;21700;-67
2021/05/29 11:56:50;;;;;;;5.28;4.37;;;;;;;15.11;100.00;99051.25;1737235;80;21097;-69
2021/05/29 11:59:20;;;;;;;4.50;4.10;;;;;;;15.05;100.00;99054.59;1751558;80;21142;-67
2021/05/29 12:01:53;;;;;;;10.18;3.80;;;;;;;15.00;100.00;99053.33;1746399;80;21074;-67
2021/05/29 12:04:28;;;;;;;4.60;3.85;;;;;;;14.99;100.00;99060.64;1745504;79;21023;-67
2021/05/29 12:07:01;;;;;;;6.30;3.90;;;;;;;14.98;100.00;99059.56;1773665;78;21122;-68
2021/05/29 12:09:39;;;;;;;3.95;3.55;;;;;;;15.05;100.00;99063.25;1765622;79;21077;-67
2021/05/29 12:12:10;;;;;;;4.70;4.12;;;;;;;15.06;100.00;99062.94;1766344;79;21206;-68
2021/05/29 12:14:40;;;;;;;4.20;3.80;;;;;;;15.03;100.00;99068.15;1775373;79;21098;-68
2021/05/29 12:17:12;;;;;;;6.50;4.53;;;;;;;14.92;100.00;99063.44;1750266;79;21296;-67
2021/05/29 12:19:52;;;;;;;8.15;3.75;;;;;;;14.96;100.00;99065.81;1772409;78;21144;-67
2021/05/29 12:22:32;;;;;;;5.72;3.70;;;;;;;15.04;100.00;99059.72;1790260;78;21120;-66
2021/05/29 12:25:07;;;;;;;5.70;3.55;;;;;;;15.08;100.00;99055.90;1775055;77;21662;-67
2021/05/29 12:27:45;;;;;;;6.08;4.03;;;;;;;15.14;100.00;99055.53;1786428;78;20894;-65
2021/05/29 12:30:17;;;;;;;9.00;3.52;;;;;;;15.23;100.00;99055.08;1786182;79;21081;-66
2021/05/29 12:32:48;;;;;;;4.00;3.60;;;;;;;15.30;100.00;99056.05;1783858;78;21099;-67
2021/05/29 12:35:35;;;;;;;6.35;4.85;;;;;;;15.39;100.00;99056.19;1797744;78;21005;-65
2021/05/29 12:38:20;;;;;;;5.25;3.80;;;;;;;15.51;100.00;99053.80;1797972;78;21037;-65
2021/05/29 12:41:07;;;;;;;5.87;3.75;;;;;;;15.57;100.00;99053.95;1801592;78;21258;-65
2021/05/29 12:43:30;;;;;;;7.17;4.33;;;;;;;15.58;100.00;99051.52;1801413;78;21009;-68
2021/05/29 12:45:59;;;;;;;6.40;3.70;;;;;;;15.52;100.00;99047.84;1804661;78;21627;-71
2021/05/29 12:48:26;;;;;;;4.08;3.67;;;;;;;15.62;100.00;99053.86;1799723;78;21022;-67
2021/05/29 12:53:38;;;;;;;7.03;3.90;;;;;;;15.61;100.00;99051.47;1804774;77;21053;-69
2021/05/29 12:56:12;;;;;;;4.08;3.77;;;;;;;15.67;100.00;99045.40;1808365;78;20966;-67
2021/05/29 12:58:43;;;;;;;4.70;4.03;;;;;;;15.66;100.00;99044.61;1798511;78;21021;-66
2021/05/29 13:12:10;;;;;;;6.42;3.67;;;;;;;15.76;100.00;99036.31;1808824;77;20207;-66
2021/05/29 13:14:37;;;;;;;3.72;3.22;;;;;;;15.80;100.00;99043.27;1805493;78;21093;-68
2021/05/29 13:17:05;;;;;;;5.08;3.60;;;;;;;15.74;100.00;99039.87;1804417;78;21083;-65
2021/05/29 13:19:51;;;;;;;4.78;3.40;;;;;;;15.74;100.00;99037.72;1807372;78;21045;-65
2021/05/29 13:22:20;;;;;;;6.35;3.75;;;;;;;15.75;100.00;99042.02;1803947;78;21084;-68
2021/05/29 13:24:58;;;;;;;6.92;3.70;;;;;;;15.68;100.00;99033.47;1806726;78;20989;-67
2021/05/29 13:27:36;;;;;;;4.08;3.47;;;;;;;15.62;100.00;99035.47;1804754;78;21136;-67
2021/05/29 13:30:13;;;;;;;;;;;;;;;15.53;100.00;99042.67;1804023;78;21089;-67
2021/05/29 13:32:41;;;;;;;6.60;3.42;;;;;;;15.51;100.00;99040.28;1809035;77;20160;-67
2021/05/29 13:35:08;;;;;;;6.93;4.10;;;;;;;15.51;100.00;99040.84;1802630;78;21049;-68
2021/05/29 13:37:35;;;;;;;6.97;3.90;;;;;;;15.51;100.00;99042.98;1807178;78;21287;-67
2021/05/29 13:40:06;;;;;;;7.00;4.72;;;;;;;15.53;100.00;99034.03;1807293;78;21108;-66
2021/05/29 13:42:33;;;;;;;4.70;3.45;;;;;;;15.52;100.00;99036.47;1789036;78;21115;-67
2021/05/29 13:45:00;;;;;;;8.08;4.12;;;;;;;15.59;100.00;99035.52;1796806;78;21037;-66
2021/05/29 13:47:27;;;;;;;3.87;3.33;;;;;;;15.62;100.00;99030.86;1809882;78;21547;-66
2021/05/29 13:49:55;;;;;;;6.80;3.15;;;;;;;15.75;100.00;99025.26;1794587;79;21053;-65
2021/05/29 13:52:23;;;;;;;4.85;3.10;;;;;;;15.80;100.00;99018.92;1800548;78;21077;-66
2021/05/29 13:54:54;;;;;;;4.78;3.20;;;;;;;15.77;100.00;99021.67;1780998;78;21080;-67
2021/05/29 13:57:22;;;;;;;4.25;3.40;;;;;;;15.84;100.00;99030.75;1805708;78;21082;-67
2021/05/29 13:59:50;;;;;;;4.45;3.40;;;;;;;15.85;100.00;99033.73;1800458;78;21136;-67
2021/05/29 14:02:17;;;;;;;5.40;3.10;;;;;;;15.84;100.00;99036.16;1807794;78;21682;-68
2021/05/29 14:04:47;;;;;;;;;;;;;;;15.94;100.00;99036.52;1778040;78;21038;-66
2021/05/29 14:07:15;;;;;;;;;;;;;;;15.94;100.00;99033.25;1810160;78;21028;-66
2021/05/29 14:09:42;;;;;;;;;;;;;;;15.90;100.00;99034.98;1806755;78;20259;-65
2021/05/29 14:12:11;;;;;;;;;;;;;;;15.94;100.00;99026.48;1807387;78;20228;-64
2021/05/29 14:14:39;;;;;;;5.33;3.12;;;;;;;15.94;100.00;99026.48;1801839;78;20471;-66
2021/05/29 14:17:06;;;;;;;3.40;2.90;;;;;;;15.89;100.00;99033.91;1806150;78;21180;-66
2021/05/29 14:19:33;;;;;;;6.15;4.10;;;;;;;15.85;100.00;99030.47;1804735;78;21068;-66